sensor_id;sensor_type;location;lat;lon;timestamp;pressure;altitude;pressure_sealevel;temperature;humidity
25855;BME280;13680;49.936;11.344;2023-02-28T00:00:24;97656.91;;;-1.53;67.30
25855;BME280;13680;49.936;11.344;2023-02-28T00:02:50;97653.25;;;-1.52;67.71
25855;BME280;13680;49.936;11.344;2023-02-28T00:05:18;97654.06;;;-1.51;67.94
25855;BME280;13680;49.936;11.344;2023-02-28T00:07:44;97649.56;;;-1.57;67.09
25855;BME280;13680;49.936;11.344;2023-02-28T00:10:11;97651.75;;;-1.74;67.73
25855;BME280;13680;49.936;11.344;2023-02-28T00:12:37;97659.91;;;-1.62;67.55
25855;BME280;13680;49.936;11.344;2023-02-28T00:15:10;97646.94;;;-1.64;67.79
25855;BME280;13680;49.936;11.344;2023-02-28T00:17:36;97645.34;;;-1.52;67.11
25855;BME280;13680;49.936;11.344;2023-02-28T00:20:03;97649.91;;;-1.87;68.50
25855;BME280;13680;49.936;11.344;2023-02-28T00:22:30;97646.72;;;-1.69;67.98
25855;BME280;13680;49.936;11.344;2023-02-28T00:24:55;97638.59;;;-1.61;67.78
25855;BME280;13680;49.936;11.344;2023-02-28T00:27:21;97648.50;;;-1.70;68.44
25855;BME280;13680;49.936;11.344;2023-02-28T00:29:46;97650.00;;;-1.54;67.64
25855;BME280;13680;49.936;11.344;2023-02-28T00:32:12;97642.22;;;-1.82;68.04
25855;BME280;13680;49.936;11.344;2023-02-28T00:34:37;97640.59;;;-1.76;69.23
25855;BME280;13680;49.936;11.344;2023-02-28T00:37:07;97634.75;;;-1.65;67.98
25855;BME280;13680;49.936;11.344;2023-02-28T00:39:35;97634.50;;;-1.84;68.76
25855;BME280;13680;49.936;11.344;2023-02-28T00:42:01;97635.78;;;-1.59;68.29
25855;BME280;13680;49.936;11.344;2023-02-28T00:44:27;97638.81;;;-1.62;68.55
25855;BME280;13680;49.936;11.344;2023-02-28T00:46:52;97636.94;;;-1.82;68.63
25855;BME280;13680;49.936;11.344;2023-02-28T00:49:19;97637.38;;;-1.65;68.42
25855;BME280;13680;49.936;11.344;2023-02-28T00:51:44;97636.09;;;-1.89;69.39
25855;BME280;13680;49.936;11.344;2023-02-28T00:54:10;97640.38;;;-1.75;69.02
25855;BME280;13680;49.936;11.344;2023-02-28T00:56:35;97638.63;;;-1.54;67.79
25855;BME280;13680;49.936;11.344;2023-02-28T00:59:00;97632.22;;;-1.93;69.80
25855;BME280;13680;49.936;11.344;2023-02-28T01:01:26;97639.00;;;-1.71;68.55
25855;BME280;13680;49.936;11.344;2023-02-28T01:03:51;97628.47;;;-1.64;68.71
25855;BME280;13680;49.936;11.344;2023-02-28T01:06:16;97630.66;;;-1.74;69.72
25855;BME280;13680;49.936;11.344;2023-02-28T01:08:42;97624.56;;;-1.82;70.32
25855;BME280;13680;49.936;11.344;2023-02-28T01:11:12;97631.09;;;-1.57;68.58
25855;BME280;13680;49.936;11.344;2023-02-28T01:13:38;97634.94;;;-1.67;69.26
25855;BME280;13680;49.936;11.344;2023-02-28T01:16:03;97631.66;;;-1.89;70.15
25855;BME280;13680;49.936;11.344;2023-02-28T01:18:29;97623.97;;;-1.70;69.36
25855;BME280;13680;49.936;11.344;2023-02-28T01:20:54;97624.78;;;-1.76;69.97
25855;BME280;13680;49.936;11.344;2023-02-28T01:23:21;97623.41;;;-1.66;69.73
25855;BME280;13680;49.936;11.344;2023-02-28T01:25:48;97620.97;;;-1.67;69.20
25855;BME280;13680;49.936;11.344;2023-02-28T01:28:14;97626.81;;;-1.78;69.50
25855;BME280;13680;49.936;11.344;2023-02-28T01:30:39;97630.88;;;-1.76;70.34
25855;BME280;13680;49.936;11.344;2023-02-28T01:33:04;97624.59;;;-1.68;70.46
25855;BME280;13680;49.936;11.344;2023-02-28T01:35:33;97624.00;;;-1.63;70.20
25855;BME280;13680;49.936;11.344;2023-02-28T01:37:58;97624.41;;;-1.60;69.77
25855;BME280;13680;49.936;11.344;2023-02-28T01:40:24;97625.47;;;-1.48;69.94
25855;BME280;13680;49.936;11.344;2023-02-28T01:42:49;97626.03;;;-1.52;69.29
25855;BME280;13680;49.936;11.344;2023-02-28T01:47:51;97617.63;;;-1.96;70.24
25855;BME280;13680;49.936;11.344;2023-02-28T01:50:19;97616.47;;;-1.73;70.10
25855;BME280;13680;49.936;11.344;2023-02-28T01:52:47;97609.84;;;-1.49;69.54
25855;BME280;13680;49.936;11.344;2023-02-28T01:55:15;97612.22;;;-1.74;69.79
25855;BME280;13680;49.936;11.344;2023-02-28T01:57:47;97612.59;;;-1.77;69.73
25855;BME280;13680;49.936;11.344;2023-02-28T02:00:15;97611.00;;;-1.65;69.66
25855;BME280;13680;49.936;11.344;2023-02-28T02:02:43;97610.94;;;-1.92;70.13
25855;BME280;13680;49.936;11.344;2023-02-28T02:05:19;97605.28;;;-1.89;71.14
25855;BME280;13680;49.936;11.344;2023-02-28T02:07:47;97604.91;;;-1.72;70.94
25855;BME280;13680;49.936;11.344;2023-02-28T02:10:15;97589.41;;;-2.02;71.56
25855;BME280;13680;49.936;11.344;2023-02-28T02:15:33;97593.56;;;-1.66;69.69
25855;BME280;13680;49.936;11.344;2023-02-28T02:18:07;97596.97;;;-1.79;69.82
25855;BME280;13680;49.936;11.344;2023-02-28T02:37:20;97576.44;;;-1.97;70.15
25855;BME280;13680;49.936;11.344;2023-02-28T02:40:00;97575.44;;;-1.96;70.47
25855;BME280;13680;49.936;11.344;2023-02-28T02:42:40;97572.03;;;-1.90;70.70
25855;BME280;13680;49.936;11.344;2023-02-28T02:45:12;97576.81;;;-2.14;72.09
25855;BME280;13680;49.936;11.344;2023-02-28T02:47:41;97579.88;;;-1.97;71.23
25855;BME280;13680;49.936;11.344;2023-02-28T02:50:12;97579.28;;;-1.99;70.80
25855;BME280;13680;49.936;11.344;2023-02-28T02:52:44;97583.00;;;-1.79;70.17
25855;BME280;13680;49.936;11.344;2023-02-28T02:55:11;97578.94;;;-1.89;70.97
25855;BME280;13680;49.936;11.344;2023-02-28T03:00:21;97587.47;;;-1.60;69.43
25855;BME280;13680;49.936;11.344;2023-02-28T03:02:49;97577.34;;;-1.63;69.94
25855;BME280;13680;49.936;11.344;2023-02-28T03:05:20;97577.34;;;-1.63;68.95
25855;BME280;13680;49.936;11.344;2023-02-28T03:07:47;97583.34;;;-1.96;70.73
25855;BME280;13680;49.936;11.344;2023-02-28T03:10:39;97590.84;;;-1.93;70.90
25855;BME280;13680;49.936;11.344;2023-02-28T03:15:50;97584.78;;;-2.00;70.53
25855;BME280;13680;49.936;11.344;2023-02-28T03:18:31;97585.00;;;-1.88;70.34
25855;BME280;13680;49.936;11.344;2023-02-28T03:23:55;97580.09;;;-1.98;71.07
25855;BME280;13680;49.936;11.344;2023-02-28T03:26:25;97580.72;;;-2.03;70.62
25855;BME280;13680;49.936;11.344;2023-02-28T03:32:08;97586.53;;;-2.14;70.59
25855;BME280;13680;49.936;11.344;2023-02-28T03:34:46;97584.94;;;-2.02;71.64
25855;BME280;13680;49.936;11.344;2023-02-28T03:37:17;97581.38;;;-1.81;70.11
25855;BME280;13680;49.936;11.344;2023-02-28T03:39:48;97582.63;;;-1.63;69.84
25855;BME280;13680;49.936;11.344;2023-02-28T03:42:20;97577.72;;;-1.73;69.87
25855;BME280;13680;49.936;11.344;2023-02-28T03:45:11;97583.63;;;-1.64;69.49
25855;BME280;13680;49.936;11.344;2023-02-28T03:47:41;97582.63;;;-1.63;69.18
25855;BME280;13680;49.936;11.344;2023-02-28T03:50:14;97584.16;;;-2.02;70.55
25855;BME280;13680;49.936;11.344;2023-02-28T03:53:35;97589.13;;;-2.21;70.94
25855;BME280;13680;49.936;11.344;2023-02-28T03:55:40;97576.88;;;-2.00;71.31
25855;BME280;13680;49.936;11.344;2023-02-28T03:58:21;97586.56;;;-2.07;70.81
25855;BME280;13680;49.936;11.344;2023-02-28T04:00:56;97597.09;;;-2.07;71.50
25855;BME280;13680;49.936;11.344;2023-02-28T04:03:24;97594.31;;;-1.92;70.66
25855;BME280;13680;49.936;11.344;2023-02-28T04:05:52;97593.91;;;-1.96;70.73
25855;BME280;13680;49.936;11.344;2023-02-28T04:08:19;97594.59;;;-2.29;72.01
25855;BME280;13680;49.936;11.344;2023-02-28T04:10:49;97592.47;;;-2.05;70.67
25855;BME280;13680;49.936;11.344;2023-02-28T04:13:16;97597.75;;;-1.92;71.05
25855;BME280;13680;49.936;11.344;2023-02-28T04:15:41;97603.25;;;-1.87;69.86
25855;BME280;13680;49.936;11.344;2023-02-28T04:18:07;97597.09;;;-2.14;71.71
25855;BME280;13680;49.936;11.344;2023-02-28T04:20:33;97602.44;;;-1.87;70.47
25855;BME280;13680;49.936;11.344;2023-02-28T04:22:58;97599.38;;;-1.91;70.47
25855;BME280;13680;49.936;11.344;2023-02-28T04:25:23;97604.66;;;-1.84;69.61
25855;BME280;13680;49.936;11.344;2023-02-28T04:27:48;97605.53;;;-1.70;69.71
25855;BME280;13680;49.936;11.344;2023-02-28T04:30:14;97598.59;;;-1.91;70.41
25855;BME280;13680;49.936;11.344;2023-02-28T04:32:40;97602.22;;;-1.92;70.25
25855;BME280;13680;49.936;11.344;2023-02-28T04:35:05;97604.22;;;-2.08;70.09
25855;BME280;13680;49.936;11.344;2023-02-28T04:37:31;97606.44;;;-1.98;70.27
25855;BME280;13680;49.936;11.344;2023-02-28T04:40:00;97595.13;;;-1.85;69.44
25855;BME280;13680;49.936;11.344;2023-02-28T04:42:25;97600.75;;;-2.02;70.38
25855;BME280;13680;49.936;11.344;2023-02-28T04:44:50;97605.56;;;-2.19;71.06
25855;BME280;13680;49.936;11.344;2023-02-28T04:47:16;97607.28;;;-1.98;70.61
25855;BME280;13680;49.936;11.344;2023-02-28T04:49:41;97600.75;;;-2.08;70.55
25855;BME280;13680;49.936;11.344;2023-02-28T04:52:06;97609.94;;;-1.91;69.96
25855;BME280;13680;49.936;11.344;2023-02-28T04:54:32;97605.72;;;-1.78;69.13
25855;BME280;13680;49.936;11.344;2023-02-28T04:56:58;97605.19;;;-2.16;70.95
25855;BME280;13680;49.936;11.344;2023-02-28T04:59:23;97602.81;;;-1.97;70.22
25855;BME280;13680;49.936;11.344;2023-02-28T05:01:49;97607.47;;;-1.99;70.89
25855;BME280;13680;49.936;11.344;2023-02-28T05:04:14;97609.16;;;-1.85;69.41
25855;BME280;13680;49.936;11.344;2023-02-28T05:06:40;97605.63;;;-2.05;70.10
25855;BME280;13680;49.936;11.344;2023-02-28T05:09:05;97606.34;;;-2.25;71.01
25855;BME280;13680;49.936;11.344;2023-02-28T05:11:33;97601.41;;;-2.41;71.41
25855;BME280;13680;49.936;11.344;2023-02-28T05:14:05;97605.38;;;-2.17;70.82
25855;BME280;13680;49.936;11.344;2023-02-28T05:16:31;97595.81;;;-2.25;72.04
25855;BME280;13680;49.936;11.344;2023-02-28T05:18:57;97604.38;;;-2.16;71.25
25855;BME280;13680;49.936;11.344;2023-02-28T05:21:31;97606.66;;;-2.41;72.56
25855;BME280;13680;49.936;11.344;2023-02-28T05:24:02;97597.56;;;-2.39;71.80
25855;BME280;13680;49.936;11.344;2023-02-28T05:26:28;97604.72;;;-2.26;72.28
25855;BME280;13680;49.936;11.344;2023-02-28T05:28:54;97600.31;;;-2.12;71.49
25855;BME280;13680;49.936;11.344;2023-02-28T05:31:20;97603.03;;;-1.85;70.38
25855;BME280;13680;49.936;11.344;2023-02-28T05:33:45;97607.84;;;-2.09;70.69
25855;BME280;13680;49.936;11.344;2023-02-28T05:36:11;97610.84;;;-2.19;70.68
25855;BME280;13680;49.936;11.344;2023-02-28T05:38:36;97612.13;;;-2.43;72.27
25855;BME280;13680;49.936;11.344;2023-02-28T05:41:09;97619.25;;;-2.43;72.21
25855;BME280;13680;49.936;11.344;2023-02-28T05:43:35;97614.69;;;-2.15;71.99
25855;BME280;13680;49.936;11.344;2023-02-28T05:46:06;97620.50;;;-2.33;71.69
25855;BME280;13680;49.936;11.344;2023-02-28T05:48:35;97622.44;;;-2.06;71.23
25855;BME280;13680;49.936;11.344;2023-02-28T05:51:01;97622.09;;;-1.90;70.70
25855;BME280;13680;49.936;11.344;2023-02-28T05:53:28;97623.59;;;-1.67;70.08
25855;BME280;13680;49.936;11.344;2023-02-28T05:55:54;97618.84;;;-1.92;69.98
25855;BME280;13680;49.936;11.344;2023-02-28T05:58:19;97629.34;;;-2.05;70.77
25855;BME280;13680;49.936;11.344;2023-02-28T06:00:45;97613.59;;;-1.85;70.45
25855;BME280;13680;49.936;11.344;2023-02-28T06:03:11;97621.66;;;-2.00;71.61
25855;BME280;13680;49.936;11.344;2023-02-28T06:05:36;97630.47;;;-1.73;69.42
25855;BME280;13680;49.936;11.344;2023-02-28T06:08:01;97631.88;;;-1.84;70.54
25855;BME280;13680;49.936;11.344;2023-02-28T06:10:27;97630.84;;;-1.83;70.74
25855;BME280;13680;49.936;11.344;2023-02-28T06:12:52;97630.88;;;-1.76;70.57
25855;BME280;13680;49.936;11.344;2023-02-28T06:15:17;97631.91;;;-1.70;69.68
25855;BME280;13680;49.936;11.344;2023-02-28T06:17:44;97635.28;;;-1.90;70.24
25855;BME280;13680;49.936;11.344;2023-02-28T06:20:10;97641.66;;;-1.57;69.31
25855;BME280;13680;49.936;11.344;2023-02-28T06:22:38;97634.50;;;-1.84;69.45
25855;BME280;13680;49.936;11.344;2023-02-28T06:25:04;97633.88;;;-1.86;69.72
25855;BME280;13680;49.936;11.344;2023-02-28T06:27:31;97636.50;;;-1.86;68.97
25855;BME280;13680;49.936;11.344;2023-02-28T06:29:57;97639.81;;;-1.63;68.83
25855;BME280;13680;49.936;11.344;2023-02-28T06:32:22;97645.75;;;-1.41;67.63
25855;BME280;13680;49.936;11.344;2023-02-28T06:34:48;97648.19;;;-1.40;67.87
25855;BME280;13680;49.936;11.344;2023-02-28T06:37:14;97639.47;;;-1.20;67.38
25855;BME280;13680;49.936;11.344;2023-02-28T06:39:39;97650.03;;;-1.27;67.57
25855;BME280;13680;49.936;11.344;2023-02-28T06:42:04;97651.44;;;-1.44;67.28
25855;BME280;13680;49.936;11.344;2023-02-28T06:44:30;97661.00;;;-1.30;67.91
25855;BME280;13680;49.936;11.344;2023-02-28T06:47:03;97659.19;;;-1.09;67.21
25855;BME280;13680;49.936;11.344;2023-02-28T06:49:30;97664.69;;;-0.97;67.09
25855;BME280;13680;49.936;11.344;2023-02-28T06:51:56;97661.84;;;-0.89;66.29
25855;BME280;13680;49.936;11.344;2023-02-28T06:54:21;97653.50;;;-1.00;66.07
25855;BME280;13680;49.936;11.344;2023-02-28T06:56:47;97656.94;;;-1.12;67.89
25855;BME280;13680;49.936;11.344;2023-02-28T06:59:12;97661.44;;;-0.93;67.29
25855;BME280;13680;49.936;11.344;2023-02-28T07:01:38;97657.56;;;-0.97;67.58
25855;BME280;13680;49.936;11.344;2023-02-28T07:04:05;97657.19;;;-0.94;66.75
25855;BME280;13680;49.936;11.344;2023-02-28T07:06:30;97654.13;;;-0.91;67.47
25855;BME280;13680;49.936;11.344;2023-02-28T07:08:56;97653.72;;;-0.81;66.59
25855;BME280;13680;49.936;11.344;2023-02-28T07:11:24;97661.63;;;-0.74;66.51
25855;BME280;13680;49.936;11.344;2023-02-28T07:13:51;97654.72;;;-1.09;67.60
25855;BME280;13680;49.936;11.344;2023-02-28T07:16:17;97660.63;;;-0.73;66.50
25855;BME280;13680;49.936;11.344;2023-02-28T07:18:42;97659.00;;;-0.88;67.32
25855;BME280;13680;49.936;11.344;2023-02-28T07:21:09;97665.31;;;-0.89;67.67
25855;BME280;13680;49.936;11.344;2023-02-28T07:23:35;97665.91;;;-0.53;68.68
25855;BME280;13680;49.936;11.344;2023-02-28T07:26:01;97664.69;;;-0.71;68.27
25855;BME280;13680;49.936;11.344;2023-02-28T07:28:27;97669.97;;;-0.71;67.43
25855;BME280;13680;49.936;11.344;2023-02-28T07:30:52;97669.28;;;-0.26;67.14
25855;BME280;13680;49.936;11.344;2023-02-28T07:33:17;97665.50;;;-0.70;69.36
25855;BME280;13680;49.936;11.344;2023-02-28T07:35:43;97668.78;;;0.11;71.36
25855;BME280;13680;49.936;11.344;2023-02-28T07:38:09;97670.25;;;-0.07;67.28
25855;BME280;13680;49.936;11.344;2023-02-28T07:40:35;97677.97;;;0.02;65.69
25855;BME280;13680;49.936;11.344;2023-02-28T07:43:03;97662.78;;;-0.17;65.32
25855;BME280;13680;49.936;11.344;2023-02-28T07:45:28;97684.16;;;-0.45;66.22
25855;BME280;13680;49.936;11.344;2023-02-28T07:47:55;97682.34;;;-0.58;67.40
25855;BME280;13680;49.936;11.344;2023-02-28T07:50:21;97674.38;;;-0.18;66.08
25855;BME280;13680;49.936;11.344;2023-02-28T07:52:46;97676.81;;;-0.29;66.33
25855;BME280;13680;49.936;11.344;2023-02-28T07:55:12;97680.06;;;-0.14;65.59
25855;BME280;13680;49.936;11.344;2023-02-28T07:57:39;97676.81;;;-0.16;66.17
25855;BME280;13680;49.936;11.344;2023-02-28T08:00:08;97677.63;;;-0.22;66.54
25855;BME280;13680;49.936;11.344;2023-02-28T08:02:37;97675.91;;;0.04;65.50
25855;BME280;13680;49.936;11.344;2023-02-28T08:05:04;97683.31;;;-0.19;66.18
25855;BME280;13680;49.936;11.344;2023-02-28T08:07:29;97674.72;;;0.52;64.30
25855;BME280;13680;49.936;11.344;2023-02-28T08:09:54;97678.16;;;0.59;64.04
25855;BME280;13680;49.936;11.344;2023-02-28T08:12:20;97669.75;;;0.16;65.13
25855;BME280;13680;49.936;11.344;2023-02-28T08:14:45;97673.53;;;-0.05;65.51
25855;BME280;13680;49.936;11.344;2023-02-28T08:17:11;97662.59;;;0.30;65.22
25855;BME280;13680;49.936;11.344;2023-02-28T08:19:36;97674.25;;;0.16;64.42
25855;BME280;13680;49.936;11.344;2023-02-28T08:22:01;97659.97;;;0.69;63.17
25855;BME280;13680;49.936;11.344;2023-02-28T08:24:27;97657.06;;;1.03;62.96
25855;BME280;13680;49.936;11.344;2023-02-28T08:26:53;97662.50;;;0.82;61.58
25855;BME280;13680;49.936;11.344;2023-02-28T08:29:18;97663.66;;;1.19;62.91
25855;BME280;13680;49.936;11.344;2023-02-28T08:31:43;97663.78;;;0.73;62.43
25855;BME280;13680;49.936;11.344;2023-02-28T08:34:11;97655.19;;;0.46;63.05
25855;BME280;13680;49.936;11.344;2023-02-28T08:36:38;97657.31;;;0.69;62.47
25855;BME280;13680;49.936;11.344;2023-02-28T08:39:04;97657.53;;;1.00;61.52
25855;BME280;13680;49.936;11.344;2023-02-28T08:41:30;97659.78;;;0.64;62.38
25855;BME280;13680;49.936;11.344;2023-02-28T08:43:56;97657.72;;;0.73;62.37
25855;BME280;13680;49.936;11.344;2023-02-28T08:46:21;97666.09;;;0.95;62.29
25855;BME280;13680;49.936;11.344;2023-02-28T08:48:46;97662.84;;;0.61;62.75
25855;BME280;13680;49.936;11.344;2023-02-28T08:51:14;97660.88;;;0.81;61.28
25855;BME280;13680;49.936;11.344;2023-02-28T08:53:47;97666.94;;;0.57;61.81
25855;BME280;13680;49.936;11.344;2023-02-28T08:56:15;97666.44;;;0.73;61.49
25855;BME280;13680;49.936;11.344;2023-02-28T08:58:42;97665.84;;;0.71;62.53
25855;BME280;13680;49.936;11.344;2023-02-28T09:01:13;97659.97;;;0.24;62.63
25855;BME280;13680;49.936;11.344;2023-02-28T09:03:39;97665.09;;;0.89;61.15
25855;BME280;13680;49.936;11.344;2023-02-28T09:06:08;97672.69;;;0.86;60.65
25855;BME280;13680;49.936;11.344;2023-02-28T09:08:33;97670.63;;;0.88;60.99
25855;BME280;13680;49.936;11.344;2023-02-28T09:10:59;97666.88;;;1.02;59.18
25855;BME280;13680;49.936;11.344;2023-02-28T09:13:25;97668.63;;;0.83;59.49
25855;BME280;13680;49.936;11.344;2023-02-28T09:15:51;97665.75;;;1.17;59.92
25855;BME280;13680;49.936;11.344;2023-02-28T09:18:17;97673.84;;;1.47;58.18
25855;BME280;13680;49.936;11.344;2023-02-28T09:20:43;97678.44;;;1.33;57.03
25855;BME280;13680;49.936;11.344;2023-02-28T09:23:09;97668.44;;;1.10;56.44
25855;BME280;13680;49.936;11.344;2023-02-28T09:25:35;97664.53;;;1.38;56.28
25855;BME280;13680;49.936;11.344;2023-02-28T09:28:01;97671.59;;;1.69;56.03
25855;BME280;13680;49.936;11.344;2023-02-28T09:30:27;97676.25;;;1.92;54.53
25855;BME280;13680;49.936;11.344;2023-02-28T09:32:54;97678.25;;;1.97;54.38
25855;BME280;13680;49.936;11.344;2023-02-28T09:35:21;97663.38;;;1.77;54.67
25855;BME280;13680;49.936;11.344;2023-02-28T09:37:51;97685.59;;;1.95;54.90
25855;BME280;13680;49.936;11.344;2023-02-28T09:40:21;97691.78;;;1.20;55.77
25855;BME280;13680;49.936;11.344;2023-02-28T09:42:49;97686.66;;;1.25;54.61
25855;BME280;13680;49.936;11.344;2023-02-28T09:45:25;97680.66;;;1.36;55.11
25855;BME280;13680;49.936;11.344;2023-02-28T09:47:54;97684.13;;;1.80;53.92
25855;BME280;13680;49.936;11.344;2023-02-28T09:50:35;97686.59;;;1.57;54.66
25855;BME280;13680;49.936;11.344;2023-02-28T09:53:10;97691.94;;;1.75;54.35
25855;BME280;13680;49.936;11.344;2023-02-28T09:55:42;97682.75;;;1.53;54.94
25855;BME280;13680;49.936;11.344;2023-02-28T09:58:18;97679.31;;;1.71;54.00
25855;BME280;13680;49.936;11.344;2023-02-28T10:00:54;97685.31;;;1.85;53.77
25855;BME280;13680;49.936;11.344;2023-02-28T10:03:31;97682.19;;;1.69;55.45
25855;BME280;13680;49.936;11.344;2023-02-28T10:11:13;97679.13;;;1.91;55.16
25855;BME280;13680;49.936;11.344;2023-02-28T10:13:56;97687.38;;;2.01;54.69
25855;BME280;13680;49.936;11.344;2023-02-28T10:16:51;97702.25;;;2.02;54.51
25855;BME280;13680;49.936;11.344;2023-02-28T10:19:22;97693.13;;;1.98;53.96
25855;BME280;13680;49.936;11.344;2023-02-28T10:21:57;97690.75;;;2.27;52.03
25855;BME280;13680;49.936;11.344;2023-02-28T10:27:13;97668.16;;;2.55;53.06
25855;BME280;13680;49.936;11.344;2023-02-28T10:29:45;97670.38;;;3.00;51.97
25855;BME280;13680;49.936;11.344;2023-02-28T10:32:17;97665.94;;;3.36;51.40
25855;BME280;13680;49.936;11.344;2023-02-28T10:34:43;97678.09;;;2.90;51.58
25855;BME280;13680;49.936;11.344;2023-02-28T10:37:10;97680.16;;;2.88;51.88
25855;BME280;13680;49.936;11.344;2023-02-28T10:39:43;97670.31;;;3.31;51.12
25855;BME280;13680;49.936;11.344;2023-02-28T10:42:28;97663.88;;;3.38;50.92
25855;BME280;13680;49.936;11.344;2023-02-28T10:45:16;97674.50;;;3.86;49.87
25855;BME280;13680;49.936;11.344;2023-02-28T10:47:54;97670.44;;;3.36;50.20
25855;BME280;13680;49.936;11.344;2023-02-28T10:50:37;97673.00;;;3.42;50.30
25855;BME280;13680;49.936;11.344;2023-02-28T10:53:10;97672.94;;;3.19;50.62
25855;BME280;13680;49.936;11.344;2023-02-28T10:55:39;97664.09;;;3.60;49.49
25855;BME280;13680;49.936;11.344;2023-02-28T10:58:20;97670.69;;;3.82;49.44
25855;BME280;13680;49.936;11.344;2023-02-28T11:00:46;97656.03;;;4.20;49.45
25855;BME280;13680;49.936;11.344;2023-02-28T11:03:29;97668.53;;;4.77;48.77
25855;BME280;13680;49.936;11.344;2023-02-28T11:05:55;97663.78;;;4.62;47.65
25855;BME280;13680;49.936;11.344;2023-02-28T11:08:20;97670.53;;;4.00;48.22
25855;BME280;13680;49.936;11.344;2023-02-28T11:10:55;97668.97;;;3.64;49.72
25855;BME280;13680;49.936;11.344;2023-02-28T11:13:25;97652.03;;;3.93;48.39
25855;BME280;13680;49.936;11.344;2023-02-28T11:15:55;97658.75;;;3.84;48.46
25855;BME280;13680;49.936;11.344;2023-02-28T11:18:29;97655.59;;;4.52;47.50
25855;BME280;13680;49.936;11.344;2023-02-28T11:20:58;97648.00;;;5.57;45.99
25855;BME280;13680;49.936;11.344;2023-02-28T11:23:29;97648.78;;;4.44;47.19
25855;BME280;13680;49.936;11.344;2023-02-28T11:25:58;97654.78;;;4.97;46.26
25855;BME280;13680;49.936;11.344;2023-02-28T11:28:35;97645.09;;;5.42;45.64
25855;BME280;13680;49.936;11.344;2023-02-28T11:33:47;97636.69;;;5.50;46.04
25855;BME280;13680;49.936;11.344;2023-02-28T11:38:42;97639.56;;;6.77;42.98
25855;BME280;13680;49.936;11.344;2023-02-28T11:41:20;97628.75;;;7.64;41.58
25855;BME280;13680;49.936;11.344;2023-02-28T11:44:08;97643.13;;;7.52;40.36
25855;BME280;13680;49.936;11.344;2023-02-28T11:46:49;97637.81;;;6.60;41.65
25855;BME280;13680;49.936;11.344;2023-02-28T11:52:20;97641.94;;;6.46;41.05
25855;BME280;13680;49.936;11.344;2023-02-28T11:54:59;97646.16;;;5.97;43.06
25855;BME280;13680;49.936;11.344;2023-02-28T12:06:13;97648.03;;;6.68;41.29
25855;BME280;13680;49.936;11.344;2023-02-28T12:11:33;97642.25;;;6.77;40.73
25855;BME280;13680;49.936;11.344;2023-02-28T12:19:54;97622.41;;;7.80;39.66
25855;BME280;13680;49.936;11.344;2023-02-28T12:22:34;97605.84;;;8.52;38.82
25855;BME280;13680;49.936;11.344;2023-02-28T12:27:47;97602.63;;;8.50;39.08
25855;BME280;13680;49.936;11.344;2023-02-28T12:30:24;97607.75;;;8.67;38.19
25855;BME280;13680;49.936;11.344;2023-02-28T12:33:06;97606.78;;;8.15;39.06
25855;BME280;13680;49.936;11.344;2023-02-28T12:35:51;97607.53;;;9.15;38.30
25855;BME280;13680;49.936;11.344;2023-02-28T12:38:35;97612.78;;;9.82;37.66
25855;BME280;13680;49.936;11.344;2023-02-28T12:41:04;97616.38;;;8.84;38.12
25855;BME280;13680;49.936;11.344;2023-02-28T12:43:40;97606.69;;;8.89;38.19
25855;BME280;13680;49.936;11.344;2023-02-28T12:46:16;97617.16;;;9.00;37.93
25855;BME280;13680;49.936;11.344;2023-02-28T12:49:02;97618.88;;;8.33;37.98
25855;BME280;13680;49.936;11.344;2023-02-28T12:51:30;97601.31;;;8.58;38.29
25855;BME280;13680;49.936;11.344;2023-02-28T12:56:44;97612.19;;;7.67;40.41
25855;BME280;13680;49.936;11.344;2023-02-28T13:04:42;97602.69;;;7.97;40.21
25855;BME280;13680;49.936;11.344;2023-02-28T13:07:31;97609.56;;;8.41;38.68
25855;BME280;13680;49.936;11.344;2023-02-28T13:10:00;97597.03;;;9.39;37.05
25855;BME280;13680;49.936;11.344;2023-02-28T13:12:28;97606.28;;;9.98;36.54
25855;BME280;13680;49.936;11.344;2023-02-28T13:15:16;97606.31;;;9.93;36.46
25855;BME280;13680;49.936;11.344;2023-02-28T13:17:48;97604.78;;;8.68;37.67
25855;BME280;13680;49.936;11.344;2023-02-28T13:20:17;97601.88;;;9.11;37.67
25855;BME280;13680;49.936;11.344;2023-02-28T13:22:45;97606.03;;;8.35;38.14
25855;BME280;13680;49.936;11.344;2023-02-28T13:27:58;97606.47;;;9.21;37.15
25855;BME280;13680;49.936;11.344;2023-02-28T13:36:27;97595.78;;;10.07;36.46
25855;BME280;13680;49.936;11.344;2023-02-28T13:39:44;97587.00;;;9.76;36.38
25855;BME280;13680;49.936;11.344;2023-02-28T13:47:43;97580.22;;;10.59;33.95
25855;BME280;13680;49.936;11.344;2023-02-28T13:55:53;97576.44;;;11.29;32.60
25855;BME280;13680;49.936;11.344;2023-02-28T13:58:43;97571.38;;;9.93;34.67
25855;BME280;13680;49.936;11.344;2023-02-28T14:02:17;97570.44;;;10.74;34.12
25855;BME280;13680;49.936;11.344;2023-02-28T14:04:54;97572.03;;;10.75;34.61
25855;BME280;13680;49.936;11.344;2023-02-28T14:07:29;97563.91;;;11.92;32.25
25855;BME280;13680;49.936;11.344;2023-02-28T14:10:03;97553.13;;;12.17;30.88
25855;BME280;13680;49.936;11.344;2023-02-28T14:15:29;97564.66;;;13.13;29.74
25855;BME280;13680;49.936;11.344;2023-02-28T14:17:56;97563.34;;;13.43;29.83
25855;BME280;13680;49.936;11.344;2023-02-28T14:20:27;97557.75;;;14.23;28.43
25855;BME280;13680;49.936;11.344;2023-02-28T14:25:40;97560.31;;;11.78;30.55
25855;BME280;13680;49.936;11.344;2023-02-28T14:31:19;97562.50;;;12.00;30.57
25855;BME280;13680;49.936;11.344;2023-02-28T14:33:54;97572.31;;;11.08;31.39
25855;BME280;13680;49.936;11.344;2023-02-28T14:36:27;97567.13;;;10.87;32.41
25855;BME280;13680;49.936;11.344;2023-02-28T14:38:58;97558.38;;;11.30;31.45
25855;BME280;13680;49.936;11.344;2023-02-28T14:41:33;97561.31;;;10.20;33.63
25855;BME280;13680;49.936;11.344;2023-02-28T14:44:18;97551.44;;;10.94;32.20
25855;BME280;13680;49.936;11.344;2023-02-28T14:46:45;97553.97;;;11.69;31.08
25855;BME280;13680;49.936;11.344;2023-02-28T14:49:28;97552.53;;;10.59;32.62
25855;BME280;13680;49.936;11.344;2023-02-28T14:52:17;97555.00;;;10.50;32.81